Time;durP1;ratioP1;P1;durP2;ratioP2;P2;SDS_P1;SDS_P2;PMS_P1;PMS_P2;Temp;Humidity;BMP_temperature;BMP_pressure;BME280_temperature;BME280_humidity;BME280_pressure;Samples;Min_cycle;Max_cycle;Signal;HPM_P1;HPM_P2
2021/09/09 00:01:35;;;;;;;13.37;12.07;;;20.20;99.90;;;;;;5089496;28;20236;-74
2021/09/09 00:04:02;;;;;;;15.80;12.10;;;20.20;99.90;;;;;;5089339;28;20264;-74
2021/09/09 00:06:30;;;;;;;13.33;12.03;;;20.20;99.90;;;;;;5089272;28;20226;-74
2021/09/09 00:08:57;;;;;;;13.40;12.13;;;20.10;99.90;;;;;;5089503;28;20231;-75
2021/09/09 00:11:24;;;;;;;12.23;11.13;;;20.10;99.90;;;;;;5089177;28;20206;-74
2021/09/09 00:13:50;;;;;;;13.13;11.83;;;20.00;99.90;;;;;;5088759;28;20207;-75
2021/09/09 00:16:17;;;;;;;13.37;11.70;;;20.10;99.90;;;;;;5088684;28;20661;-74
2021/09/09 00:18:44;;;;;;;12.67;11.50;;;20.10;99.90;;;;;;5088755;28;20675;-74
2021/09/09 00:21:11;;;;;;;12.83;11.53;;;20.00;99.90;;;;;;5089056;28;20199;-74
2021/09/09 00:23:39;;;;;;;13.07;11.87;;;20.00;99.90;;;;;;5089075;28;20260;-74
2021/09/09 00:26:06;;;;;;;12.53;11.20;;;20.00;99.90;;;;;;5082154;28;20249;-75
2021/09/09 00:28:32;;;;;;;12.80;11.53;;;20.00;99.90;;;;;;5067024;28;20211;-74
2021/09/09 00:30:59;;;;;;;13.83;11.97;;;20.00;99.90;;;;;;5068368;28;20235;-74
2021/09/09 00:33:26;;;;;;;12.53;11.43;;;20.00;99.90;;;;;;5068268;28;20199;-74
2021/09/09 00:35:53;;;;;;;12.43;11.23;;;20.00;99.90;;;;;;5068525;28;20660;-74
2021/09/09 00:38:19;;;;;;;13.30;11.43;;;20.00;99.90;;;;;;5068611;28;20237;-74
2021/09/09 00:40:47;;;;;;;13.23;11.87;;;20.00;99.90;;;;;;5068631;28;20281;-74
2021/09/09 00:43:14;;;;;;;13.70;11.93;;;20.00;99.90;;;;;;5068570;28;20261;-74
2021/09/09 00:45:41;;;;;;;13.13;11.73;;;20.10;99.90;;;;;;5068639;28;20207;-74
2021/09/09 00:48:07;;;;;;;12.47;11.23;;;20.10;99.90;;;;;;5068516;28;20234;-74
2021/09/09 00:50:34;;;;;;;12.10;10.80;;;20.20;99.90;;;;;;5068338;28;20230;-74
2021/09/09 00:53:01;;;;;;;11.23;10.10;;;20.10;99.90;;;;;;5068573;28;20211;-74
2021/09/09 00:55:28;;;;;;;14.17;11.27;;;20.20;99.90;;;;;;5068113;28;20235;-74
2021/09/09 00:57:57;;;;;;;12.07;10.97;;;20.20;99.90;;;;;;5068456;28;20241;-74
2021/09/09 01:00:23;;;;;;;12.37;11.10;;;20.20;99.90;;;;;;5068403;28;20253;-74
2021/09/09 01:02:50;;;;;;;14.20;11.37;;;20.10;99.90;;;;;;5068449;28;20215;-74
2021/09/09 01:05:17;;;;;;;12.23;11.00;;;20.20;99.90;;;;;;5067604;28;20709;-74
2021/09/09 01:07:43;;;;;;;11.20;10.20;;;20.20;99.90;;;;;;5068389;28;20243;-76
2021/09/09 01:10:10;;;;;;;11.63;10.43;;;20.20;99.90;;;;;;5068457;28;20227;-76
2021/09/09 01:12:37;;;;;;;11.00;9.90;;;20.10;99.90;;;;;;5068679;28;20246;-76
2021/09/09 01:15:06;;;;;;;12.00;10.33;;;20.10;99.90;;;;;;5081249;28;20210;-73
2021/09/09 01:17:33;;;;;;;11.63;10.53;;;20.00;99.90;;;;;;5087850;28;20234;-73
2021/09/09 01:19:59;;;;;;;12.20;10.53;;;20.00;99.90;;;;;;5087985;28;20242;-73
2021/09/09 01:22:26;;;;;;;11.17;10.03;;;20.00;99.90;;;;;;5087715;28;20259;-73
2021/09/09 01:24:54;;;;;;;10.73;9.80;;;20.00;99.90;;;;;;5087682;28;20617;-73
2021/09/09 01:27:21;;;;;;;11.23;10.00;;;20.00;99.90;;;;;;5091213;28;20271;-73
2021/09/09 01:29:47;;;;;;;11.30;10.27;;;20.00;99.90;;;;;;5091614;28;20299;-73
2021/09/09 01:32:15;;;;;;;11.47;10.27;;;19.90;99.90;;;;;;5091675;28;20238;-75
2021/09/09 01:34:42;;;;;;;11.23;10.07;;;19.90;99.90;;;;;;5091977;28;20573;-75
2021/09/09 01:37:10;;;;;;;10.93;9.80;;;19.90;99.90;;;;;;5091981;28;20234;-76
2021/09/09 01:39:38;;;;;;;11.40;9.40;;;19.90;99.90;;;;;;5091886;28;20214;-75
2021/09/09 01:42:06;;;;;;;9.57;8.77;;;19.90;99.90;;;;;;5092487;28;20280;-76
2021/09/09 01:44:33;;;;;;;9.93;9.00;;;19.90;99.90;;;;;;5092267;28;20268;-76
2021/09/09 01:46:59;;;;;;;10.60;9.60;;;19.90;99.90;;;;;;5092376;28;20206;-76
2021/09/09 01:49:27;;;;;;;12.37;8.93;;;19.90;99.90;;;;;;5092199;28;20616;-75
2021/09/09 01:51:54;;;;;;;11.77;9.33;;;19.90;99.90;;;;;;5092238;28;20203;-76
2021/09/09 01:54:20;;;;;;;10.10;9.20;;;19.90;99.90;;;;;;5092211;28;20211;-76
2021/09/09 01:56:47;;;;;;;11.23;9.67;;;20.00;99.90;;;;;;5091706;28;20311;-76
2021/09/09 01:59:15;;;;;;;10.23;9.33;;;19.90;99.90;;;;;;5091931;28;20605;-76
2021/09/09 02:01:42;;;;;;;10.33;9.33;;;19.90;99.90;;;;;;5092306;28;20211;-76
2021/09/09 02:04:09;;;;;;;11.50;9.87;;;19.90;99.90;;;;;;5091758;28;20255;-76
2021/09/09 02:06:37;;;;;;;10.57;9.33;;;19.90;99.90;;;;;;5091117;28;20202;-76
2021/09/09 02:09:05;;;;;;;10.63;9.50;;;19.90;99.90;;;;;;5091662;28;20724;-73
2021/09/09 02:11:32;;;;;;;13.33;10.70;;;19.90;99.90;;;;;;5091388;28;20247;-74
2021/09/09 02:13:58;;;;;;;10.93;9.57;;;19.90;99.90;;;;;;5091665;28;20203;-74
2021/09/09 02:16:28;;;;;;;10.73;9.60;;;19.80;99.90;;;;;;5091092;28;20660;-74
2021/09/09 02:18:55;;;;;;;10.97;9.87;;;19.80;99.90;;;;;;5091708;28;20203;-74
2021/09/09 02:21:22;;;;;;;12.10;9.10;;;19.70;99.90;;;;;;5091248;28;20207;-74
2021/09/09 02:23:48;;;;;;;10.27;9.33;;;19.70;99.90;;;;;;5091629;28;20260;-74
2021/09/09 02:26:15;;;;;;;10.90;9.90;;;19.70;99.90;;;;;;5091344;28;20258;-74
2021/09/09 02:28:42;;;;;;;9.97;9.07;;;19.70;99.90;;;;;;5091456;28;20298;-75
2021/09/09 02:31:09;;;;;;;11.90;10.07;;;19.70;99.90;;;;;;5091568;28;20348;-75
2021/09/09 02:33:37;;;;;;;12.47;9.60;;;19.60;99.90;;;;;;5091662;28;20260;-75
2021/09/09 02:36:03;;;;;;;13.50;9.80;;;19.70;99.90;;;;;;5091549;28;20612;-75
2021/09/09 02:38:30;;;;;;;11.70;10.47;;;19.70;99.90;;;;;;5090756;28;20307;-75
2021/09/09 02:40:57;;;;;;;11.00;9.17;;;19.70;99.90;;;;;;5091228;28;20622;-75
2021/09/09 02:43:23;;;;;;;11.60;9.87;;;19.60;99.90;;;;;;5091295;28;20242;-72
2021/09/09 02:45:50;;;;;;;11.50;10.40;;;19.60;99.90;;;;;;5091050;28;20435;-72
2021/09/09 02:48:16;;;;;;;11.43;10.23;;;19.60;99.90;;;;;;5090762;28;20669;-72
2021/09/09 02:50:44;;;;;;;11.73;9.70;;;19.60;99.90;;;;;;5091038;28;20266;-72
2021/09/09 02:53:11;;;;;;;11.77;10.13;;;19.50;99.90;;;;;;5090501;28;20699;-73
2021/09/09 02:55:38;;;;;;;15.47;9.57;;;19.50;99.90;;;;;;5090497;28;20234;-73
2021/09/09 02:58:04;;;;;;;12.73;10.00;;;19.40;99.90;;;;;;5090757;28;20241;-73
2021/09/09 03:00:31;;;;;;;11.47;10.27;;;19.30;99.90;;;;;;5090576;28;20234;-73
2021/09/09 03:02:58;;;;;;;11.30;10.33;;;19.20;99.90;;;;;;5090483;28;20202;-73
2021/09/09 03:05:24;;;;;;;13.13;9.50;;;19.10;99.90;;;;;;5090270;28;20227;-73
2021/09/09 03:07:52;;;;;;;13.93;10.00;;;19.20;99.90;;;;;;5090343;28;20272;-73
2021/09/09 03:10:19;;;;;;;12.30;9.87;;;19.20;99.90;;;;;;5090115;28;20284;-73
2021/09/09 03:12:45;;;;;;;11.80;9.57;;;19.20;99.90;;;;;;5090431;28;20507;-73
2021/09/09 03:15:12;;;;;;;11.03;9.67;;;19.30;99.90;;;;;;5090428;28;20203;-72
2021/09/09 03:17:39;;;;;;;10.80;9.80;;;19.30;99.90;;;;;;5090265;28;20234;-72
2021/09/09 03:20:06;;;;;;;11.40;9.63;;;19.30;99.90;;;;;;5090463;28;20211;-72
2021/09/09 03:22:33;;;;;;;11.07;10.07;;;19.30;99.90;;;;;;5090107;28;20242;-73
2021/09/09 03:25:01;;;;;;;10.90;9.73;;;19.30;99.90;;;;;;5089856;28;20656;-73
2021/09/09 03:27:27;;;;;;;10.27;8.87;;;19.20;99.90;;;;;;5089734;28;20258;-72
2021/09/09 03:29:54;;;;;;;11.03;9.90;;;19.10;99.90;;;;;;5089933;28;20520;-73
2021/09/09 03:32:21;;;;;;;10.27;9.27;;;19.10;99.90;;;;;;5089396;28;20691;-73
2021/09/09 03:34:47;;;;;;;10.90;9.77;;;19.10;99.90;;;;;;5090021;28;20219;-73
2021/09/09 03:37:14;;;;;;;11.50;10.17;;;19.10;99.90;;;;;;5089774;28;20202;-73
2021/09/09 03:39:40;;;;;;;10.20;9.20;;;19.10;99.90;;;;;;5089929;28;20625;-73
2021/09/09 03:42:08;;;;;;;10.90;9.57;;;19.10;99.90;;;;;;5089894;28;20252;-73
2021/09/09 03:44:35;;;;;;;11.60;9.40;;;19.10;99.90;;;;;;5089737;28;20944;-73
2021/09/09 03:47:02;;;;;;;9.87;8.87;;;19.10;99.90;;;;;;5089734;28;20207;-75
2021/09/09 03:49:28;;;;;;;10.90;9.37;;;19.10;99.90;;;;;;5088823;28;20363;-75
2021/09/09 03:51:55;;;;;;;10.67;9.63;;;19.10;99.90;;;;;;5089301;28;20719;-75
2021/09/09 03:54:22;;;;;;;10.80;9.80;;;19.10;99.90;;;;;;5089362;28;20817;-74
2021/09/09 03:56:48;;;;;;;10.80;9.10;;;19.00;99.90;;;;;;5089059;28;20235;-73
2021/09/09 03:59:16;;;;;;;10.93;9.57;;;19.00;99.90;;;;;;5089499;28;20260;-73
2021/09/09 04:01:43;;;;;;;11.83;9.13;;;19.00;99.90;;;;;;5089602;28;20237;-74
2021/09/09 04:04:09;;;;;;;10.03;9.03;;;19.00;99.90;;;;;;5089373;28;20304;-73
2021/09/09 04:06:36;;;;;;;9.93;9.03;;;18.90;99.90;;;;;;5089132;28;20264;-73
2021/09/09 04:09:03;;;;;;;10.27;9.27;;;18.90;99.90;;;;;;5089310;28;20199;-73
2021/09/09 04:11:30;;;;;;;10.27;9.27;;;18.90;99.90;;;;;;5089311;28;20230;-73
2021/09/09 04:13:56;;;;;;;9.33;8.50;;;18.80;99.90;;;;;;5089126;28;20203;-75
2021/09/09 04:16:24;;;;;;;10.80;9.70;;;18.80;99.90;;;;;;5088873;28;20707;-74
2021/09/09 04:18:51;;;;;;;10.17;9.23;;;18.80;99.90;;;;;;5088593;28;20616;-74
2021/09/09 04:21:17;;;;;;;10.97;9.87;;;18.80;99.90;;;;;;5088829;28;20586;-73
2021/09/09 04:23:44;;;;;;;9.43;8.53;;;18.70;99.90;;;;;;5089019;28;20269;-73
2021/09/09 04:26:10;;;;;;;9.97;9.03;;;18.70;99.90;;;;;;5088920;28;20272;-73
2021/09/09 04:28:37;;;;;;;9.80;8.90;;;18.80;99.90;;;;;;5088281;28;20757;-73
2021/09/09 04:31:04;;;;;;;9.40;8.50;;;18.70;99.90;;;;;;5088528;28;20785;-73
2021/09/09 04:33:32;;;;;;;10.93;9.80;;;18.70;99.90;;;;;;5088511;28;20215;-73
2021/09/09 04:35:58;;;;;;;10.90;9.13;;;18.70;99.90;;;;;;5088976;28;20203;-75
2021/09/09 04:38:25;;;;;;;11.17;9.30;;;18.70;99.90;;;;;;5088393;28;20929;-75
2021/09/09 04:40:51;;;;;;;11.87;9.13;;;18.70;99.90;;;;;;5088756;28;20218;-75
2021/09/09 04:43:18;;;;;;;10.17;9.13;;;18.60;99.90;;;;;;5088544;28;20681;-75
2021/09/09 04:45:45;;;;;;;10.47;8.97;;;18.70;99.90;;;;;;5088216;28;20722;-75
2021/09/09 04:48:11;;;;;;;10.40;9.17;;;18.70;99.90;;;;;;5088779;28;20210;-77
2021/09/09 04:50:39;;;;;;;15.30;9.30;;;18.60;99.90;;;;;;5088217;28;20238;-76
2021/09/09 04:53:06;;;;;;;9.70;8.60;;;18.60;99.90;;;;;;5088811;28;20214;-76
2021/09/09 04:55:33;;;;;;;12.53;9.67;;;18.60;99.90;;;;;;5088161;28;20287;-76
2021/09/09 04:57:59;;;;;;;10.63;9.30;;;18.60;99.90;;;;;;5088732;28;20202;-76
2021/09/09 05:00:26;;;;;;;10.10;9.10;;;18.60;99.90;;;;;;5088266;28;20261;-76
2021/09/09 05:02:53;;;;;;;10.50;9.13;;;18.60;99.90;;;;;;5088717;28;20203;-76
2021/09/09 05:05:19;;;;;;;9.67;8.80;;;18.60;99.90;;;;;;5088338;28;20767;-76
2021/09/09 05:07:47;;;;;;;12.60;9.23;;;18.50;99.90;;;;;;5088620;28;20249;-76
2021/09/09 05:10:14;;;;;;;11.50;9.60;;;18.50;99.90;;;;;;5088542;28;20210;-76
2021/09/09 05:12:41;;;;;;;12.73;9.27;;;18.50;99.90;;;;;;5088460;28;20199;-76
2021/09/09 05:15:08;;;;;;;9.67;8.67;;;18.50;99.90;;;;;;5088280;28;20680;-76
2021/09/09 05:17:35;;;;;;;10.37;9.30;;;18.50;99.90;;;;;;5088385;28;20584;-77
2021/09/09 05:20:01;;;;;;;10.43;9.40;;;18.50;99.90;;;;;;5088509;28;20207;-77
2021/09/09 05:22:28;;;;;;;9.77;8.97;;;18.50;99.90;;;;;;5088329;28;20214;-76
2021/09/09 05:24:56;;;;;;;11.00;9.17;;;18.50;99.90;;;;;;5088186;28;20920;-76
2021/09/09 05:27:23;;;;;;;11.13;9.13;;;18.50;99.90;;;;;;5088283;28;20231;-75
2021/09/09 05:29:49;;;;;;;10.83;9.73;;;18.60;99.90;;;;;;5087996;28;20257;-74
2021/09/09 05:32:16;;;;;;;9.90;9.00;;;18.50;99.90;;;;;;5088235;28;20297;-75
2021/09/09 05:34:42;;;;;;;10.37;8.60;;;18.60;99.90;;;;;;5088132;28;20565;-75
2021/09/09 05:37:09;;;;;;;12.50;9.43;;;18.50;99.90;;;;;;5088438;28;20202;-75
2021/09/09 05:39:36;;;;;;;12.23;9.37;;;18.50;99.90;;;;;;5087707;28;20256;-75
2021/09/09 05:42:04;;;;;;;12.07;8.80;;;18.50;99.90;;;;;;5088408;28;20268;-74
2021/09/09 05:44:31;;;;;;;10.20;9.07;;;18.50;99.90;;;;;;5087804;28;20251;-74
2021/09/09 05:46:57;;;;;;;11.83;8.40;;;18.60;99.90;;;;;;5088316;28;20264;-75
2021/09/09 05:49:24;;;;;;;10.67;9.53;;;18.60;99.90;;;;;;5088177;28;20203;-75
2021/09/09 05:51:51;;;;;;;13.27;9.07;;;18.60;99.90;;;;;;5087957;28;20227;-75
2021/09/09 05:54:17;;;;;;;10.30;8.60;;;18.60;99.90;;;;;;5088109;28;20242;-75
2021/09/09 05:56:44;;;;;;;11.97;8.80;;;18.60;99.90;;;;;;5087821;28;20272;-75
2021/09/09 05:59:12;;;;;;;9.73;8.77;;;18.60;99.90;;;;;;5087818;28;20730;-75
2021/09/09 06:01:38;;;;;;;10.87;9.77;;;18.60;99.90;;;;;;5087891;28;20780;-73
2021/09/09 06:04:08;;;;;;;9.77;8.80;;;18.60;99.90;;;;;;5087896;28;20223;-74
2021/09/09 06:06:35;;;;;;;12.63;9.30;;;18.60;99.90;;;;;;5087658;28;20672;-73
2021/09/09 06:09:02;;;;;;;10.27;9.13;;;18.50;99.90;;;;;;5087701;28;20652;-73
2021/09/09 06:11:28;;;;;;;11.83;9.67;;;18.60;99.90;;;;;;5087385;28;20739;-74
2021/09/09 06:13:55;;;;;;;11.87;9.27;;;18.60;99.90;;;;;;5090852;28;20206;-73
2021/09/09 06:16:23;;;;;;;14.50;9.20;;;18.60;99.90;;;;;;5091935;28;20261;-74
2021/09/09 06:18:49;;;;;;;11.67;8.67;;;18.60;99.90;;;;;;5091351;28;20264;-74
2021/09/09 06:21:16;;;;;;;12.07;8.90;;;18.60;99.90;;;;;;5091384;28;20259;-74
2021/09/09 06:23:43;;;;;;;10.10;9.10;;;18.60;99.90;;;;;;5090977;28;20242;-74
2021/09/09 06:26:09;;;;;;;9.40;8.50;;;18.60;99.90;;;;;;5072453;28;20707;-74
2021/09/09 06:28:36;;;;;;;10.07;9.07;;;18.60;99.90;;;;;;5067236;28;20281;-74
2021/09/09 06:31:02;;;;;;;10.10;8.63;;;18.70;99.90;;;;;;5067216;28;20557;-74
2021/09/09 06:33:30;;;;;;;11.93;8.80;;;18.70;99.90;;;;;;5066922;28;20239;-74
2021/09/09 06:35:57;;;;;;;9.83;8.17;;;18.70;99.90;;;;;;5067403;28;20204;-74
2021/09/09 06:38:24;;;;;;;9.17;8.27;;;18.70;99.90;;;;;;5067225;28;20642;-74
2021/09/09 06:40:50;;;;;;;11.53;8.60;;;18.70;99.90;;;;;;5067279;28;20208;-77
2021/09/09 06:43:17;;;;;;;11.90;8.83;;;18.70;99.90;;;;;;5067325;28;20623;-76
2021/09/09 06:45:44;;;;;;;10.50;9.43;;;18.80;99.90;;;;;;5067299;28;20223;-75
2021/09/09 06:48:10;;;;;;;10.23;8.30;;;18.80;99.90;;;;;;5067156;28;20736;-75
2021/09/09 06:50:38;;;;;;;11.03;9.20;;;18.80;99.90;;;;;;5066702;28;20265;-74
2021/09/09 06:53:05;;;;;;;8.93;7.70;;;18.80;99.90;;;;;;5068894;28;20666;-74
2021/09/09 06:55:32;;;;;;;9.17;8.23;;;18.90;99.90;;;;;;5079935;28;20239;-74
2021/09/09 06:57:59;;;;;;;10.23;8.30;;;18.90;99.90;;;;;;5066528;28;20238;-74
2021/09/09 07:00:26;;;;;;;9.77;7.97;;;19.00;99.90;;;;;;5079844;28;20287;-74
2021/09/09 07:02:53;;;;;;;8.57;7.80;;;19.00;99.90;;;;;;5086660;28;20234;-74
2021/09/09 07:05:19;;;;;;;7.63;6.97;;;19.00;99.90;;;;;;5086619;28;20714;-74
2021/09/09 07:07:47;;;;;;;14.10;12.63;;;19.00;99.90;;;;;;5086133;28;20660;-74
2021/09/09 07:10:14;;;;;;;8.67;7.93;;;19.10;99.90;;;;;;5086721;28;20291;-74
2021/09/09 07:12:41;;;;;;;8.40;7.60;;;19.10;99.90;;;;;;5072427;28;20238;-74
2021/09/09 07:15:08;;;;;;;8.97;7.83;;;19.20;99.90;;;;;;5066803;28;20200;-74
2021/09/09 07:17:36;;;;;;;8.37;7.23;;;19.30;99.90;;;;;;5066070;28;20293;-74
2021/09/09 07:20:03;;;;;;;9.13;7.13;;;19.30;99.90;;;;;;5066466;28;20208;-74
2021/09/09 07:22:29;;;;;;;11.63;7.17;;;19.30;99.90;;;;;;5066075;28;20212;-76
2021/09/09 07:24:57;;;;;;;7.53;6.80;;;19.40;99.90;;;;;;5065981;28;20315;-76
2021/09/09 07:27:24;;;;;;;10.27;6.57;;;19.40;99.90;;;;;;5066239;28;20215;-75
2021/09/09 07:29:51;;;;;;;8.30;6.57;;;19.50;99.90;;;;;;5073183;28;20276;-77
2021/09/09 07:32:17;;;;;;;8.00;6.77;;;19.60;99.90;;;;;;5089514;28;20641;-77
2021/09/09 07:34:44;;;;;;;7.83;7.03;;;19.60;99.90;;;;;;5089854;28;20252;-77
2021/09/09 07:37:11;;;;;;;6.77;6.17;;;19.70;99.90;;;;;;5090142;28;20238;-77
2021/09/09 07:39:37;;;;;;;7.03;6.33;;;19.70;99.90;;;;;;5088100;28;20252;-74
2021/09/09 07:42:05;;;;;;;10.83;6.80;;;19.80;99.90;;;;;;5079875;28;20430;-78
2021/09/09 07:44:32;;;;;;;9.90;6.40;;;19.90;99.90;;;;;;5066915;28;20211;-77
2021/09/09 07:46:59;;;;;;;8.80;6.10;;;19.90;99.90;;;;;;5066680;28;20211;-77
2021/09/09 07:49:26;;;;;;;7.20;6.30;;;20.00;99.90;;;;;;5066400;28;20215;-78
2021/09/09 07:51:53;;;;;;;8.50;6.77;;;20.00;99.90;;;;;;5066859;28;20289;-77
2021/09/09 07:54:20;;;;;;;6.73;6.17;;;20.10;99.90;;;;;;5066709;28;20214;-77
2021/09/09 07:56:47;;;;;;;6.80;5.77;;;20.10;99.90;;;;;;5066091;28;20279;-77
2021/09/09 07:59:15;;;;;;;9.13;6.13;;;20.20;99.90;;;;;;5073961;28;20293;-77
2021/09/09 08:01:44;;;;;;;10.50;6.23;;;20.20;99.90;;;;;;5086671;28;20238;-77
2021/09/09 08:04:16;;;;;;;7.17;6.47;;;20.20;99.90;;;;;;5087009;28;20227;-77
2021/09/09 08:06:44;;;;;;;6.40;5.90;;;20.30;99.90;;;;;;5086447;28;20286;-78
2021/09/09 08:09:11;;;;;;;6.70;5.97;;;20.30;99.90;;;;;;5086714;28;20207;-77
2021/09/09 08:11:38;;;;;;;7.47;5.80;;;20.40;99.90;;;;;;5086107;28;20254;-77
2021/09/09 08:14:05;;;;;;;9.03;6.07;;;20.50;99.90;;;;;;5086515;28;20238;-77
2021/09/09 08:16:34;;;;;;;8.63;6.07;;;20.50;99.90;;;;;;5086460;28;20203;-77
2021/09/09 08:19:00;;;;;;;6.67;6.07;;;20.60;99.90;;;;;;5086564;28;20207;-77
2021/09/09 08:21:27;;;;;;;6.97;6.27;;;20.60;99.90;;;;;;5086254;28;20210;-77
2021/09/09 08:23:54;;;;;;;8.93;5.97;;;20.60;99.90;;;;;;5086356;28;20207;-77
2021/09/09 08:26:21;;;;;;;6.38;5.85;;;20.70;99.90;;;;;;5086468;28;20235;-77
2021/09/09 08:28:47;;;;;;;10.97;6.30;;;20.80;99.90;;;;;;5086107;28;20262;-77
2021/09/09 08:31:14;;;;;;;8.60;6.10;;;20.80;99.90;;;;;;5086571;28;20199;-78
2021/09/09 08:33:43;;;;;;;8.60;6.40;;;20.90;99.90;;;;;;5086275;28;20279;-78
2021/09/09 08:36:12;;;;;;;11.00;6.70;;;20.90;99.90;;;;;;5085512;28;20724;-77
2021/09/09 08:38:38;;;;;;;7.53;5.83;;;21.00;99.90;;;;;;5086063;28;20233;-78
2021/09/09 08:41:05;;;;;;;9.00;6.00;;;21.00;99.90;;;;;;5086067;28;20207;-77
2021/09/09 08:43:32;;;;;;;7.43;6.50;;;21.00;99.90;;;;;;5086156;28;20214;-77
2021/09/09 08:46:01;;;;;;;7.03;6.33;;;21.10;99.90;;;;;;5086330;28;20569;-77
2021/09/09 08:48:28;;;;;;;7.35;5.40;;;21.10;99.90;;;;;;5085755;28;20691;-77
2021/09/09 08:50:57;;;;;;;7.00;6.32;;;21.20;99.90;;;;;;5086207;28;20206;-78
2021/09/09 08:53:24;;;;;;;9.63;5.68;;;21.20;99.90;;;;;;5085968;28;20294;-76
2021/09/09 08:55:51;;;;;;;7.63;6.28;;;21.20;99.90;;;;;;5085678;28;20279;-77
2021/09/09 08:58:20;;;;;;;6.18;5.55;;;21.30;99.90;;;;;;5086031;28;20248;-77
2021/09/09 09:01:10;;;;;;;8.23;6.07;;;21.30;99.90;;;;;;5085705;28;20207;-77
2021/09/09 09:03:47;;;;;;;10.13;6.07;;;21.40;99.90;;;;;;5085765;28;20234;-77
2021/09/09 09:06:30;;;;;;;7.95;6.20;;;21.40;99.90;;;;;;5085970;28;20913;-77
2021/09/09 09:08:59;;;;;;;8.93;6.07;;;21.40;99.90;;;;;;5086249;28;20299;-77
2021/09/09 09:11:26;;;;;;;6.60;6.00;;;21.50;99.90;;;;;;5085888;28;20257;-77
2021/09/09 09:13:54;;;;;;;7.85;6.25;;;21.60;99.90;;;;;;5085750;28;20303;-77
2021/09/09 09:16:22;;;;;;;7.45;6.28;;;21.60;99.90;;;;;;5085694;28;20645;-78
2021/09/09 09:18:49;;;;;;;6.70;5.80;;;21.70;99.90;;;;;;5085240;28;20207;-77
2021/09/09 09:21:17;;;;;;;6.50;5.90;;;21.80;99.90;;;;;;5086061;28;20230;-77
2021/09/09 09:23:49;;;;;;;6.13;5.53;;;21.90;99.90;;;;;;5085473;28;20214;-77
2021/09/09 09:26:17;;;;;;;10.32;5.97;;;22.00;99.90;;;;;;5085644;28;20858;-77
2021/09/09 09:28:45;;;;;;;9.15;6.05;;;22.00;99.90;;;;;;5078882;28;20289;-77
2021/09/09 09:31:14;;;;;;;6.72;6.05;;;22.10;99.90;;;;;;5065409;28;20207;-77
2021/09/09 09:33:43;;;;;;;8.35;6.10;;;22.10;99.90;;;;;;5065035;28;20262;-77
2021/09/09 09:36:19;;;;;;;10.95;6.18;;;22.20;99.90;;;;;;5065167;28;20725;-77
2021/09/09 09:38:48;;;;;;;9.35;5.60;;;22.20;99.90;;;;;;5065029;28;20214;-77
2021/09/09 09:41:18;;;;;;;6.88;6.25;;;22.30;99.90;;;;;;5065227;28;20723;-76
2021/09/09 09:43:57;;;;;;;6.00;5.40;;;22.40;99.90;;;;;;5065186;28;20279;-78
2021/09/09 09:46:29;;;;;;;6.63;6.03;;;22.40;99.90;;;;;;5065441;28;20276;-78
2021/09/09 09:48:56;;;;;;;8.32;6.20;;;22.50;99.90;;;;;;5069729;28;20207;-78
2021/09/09 09:51:40;;;;;;;7.30;6.25;;;22.50;99.90;;;;;;5069206;28;20214;-78
2021/09/09 09:54:09;;;;;;;8.25;5.90;;;22.60;99.90;;;;;;5069016;28;20226;-78
2021/09/09 09:56:36;;;;;;;6.22;5.72;;;22.70;99.90;;;;;;5068376;28;20887;-78
2021/09/09 09:59:04;;;;;;;8.98;5.88;;;22.70;99.90;;;;;;5068773;28;20203;-78
2021/09/09 10:01:31;;;;;;;6.70;5.70;;;22.80;99.90;;;;;;5068729;28;20350;-78
2021/09/09 10:04:03;;;;;;;8.38;5.97;;;22.90;99.90;;;;;;5068374;28;20281;-77
2021/09/09 10:06:31;;;;;;;13.10;6.03;;;22.90;99.90;;;;;;5068797;28;20196;-78
2021/09/09 10:08:58;;;;;;;11.45;6.13;;;22.90;99.90;;;;;;5083717;28;20813;-78
2021/09/09 10:11:26;;;;;;;6.63;5.57;;;23.00;99.90;;;;;;5089002;28;20214;-78
2021/09/09 10:13:54;;;;;;;7.03;6.05;;;23.10;99.90;;;;;;5088441;28;20261;-77
2021/09/09 10:16:22;;;;;;;6.15;5.65;;;23.20;99.90;;;;;;5089001;28;20207;-78
2021/09/09 10:18:48;;;;;;;6.78;6.07;;;23.20;99.90;;;;;;5088946;28;20299;-78
2021/09/09 10:21:40;;;;;;;7.45;6.30;;;23.30;99.90;;;;;;5088893;28;20252;-78
2021/09/09 10:24:12;;;;;;;8.85;6.00;;;23.30;99.90;;;;;;5089107;28;20199;-78
2021/09/09 10:26:40;;;;;;;10.45;6.03;;;23.30;99.90;;;;;;5088527;28;20231;-78
2021/09/09 10:29:09;;;;;;;6.68;6.07;;;23.40;99.90;;;;;;5088467;28;20769;-78
2021/09/09 10:31:41;;;;;;;6.95;6.07;;;23.60;99.90;;;;;;5088519;28;20688;-78
2021/09/09 10:34:09;;;;;;;6.45;5.97;;;23.60;99.90;;;;;;5088027;28;20775;-78
2021/09/09 10:36:44;;;;;;;7.07;6.38;;;23.70;99.90;;;;;;5087934;28;20869;-78
2021/09/09 10:39:13;;;;;;;6.60;5.82;;;23.80;99.90;;;;;;5088377;28;20190;-77
2021/09/09 10:41:42;;;;;;;6.85;6.00;;;23.80;99.90;;;;;;5088043;28;20310;-77
2021/09/09 10:44:09;;;;;;;6.57;5.97;;;23.90;99.90;;;;;;5088176;28;20680;-77
2021/09/09 10:46:38;;;;;;;6.75;6.15;;;24.00;99.50;;;;;;5087902;28;20701;-77
2021/09/09 10:49:11;;;;;;;6.45;5.93;;;24.10;99.60;;;;;;5088126;28;20213;-77
2021/09/09 10:51:39;;;;;;;6.50;5.90;;;24.20;99.90;;;;;;5088273;28;20206;-77
2021/09/09 10:54:13;;;;;;;6.80;6.30;;;24.30;99.90;;;;;;5088231;28;20234;-77
2021/09/09 10:56:42;;;;;;;7.57;6.20;;;24.40;99.90;;;;;;5087580;28;20284;-77
2021/09/09 10:59:14;;;;;;;7.32;5.95;;;24.50;99.90;;;;;;5087432;28;20214;-77
2021/09/09 11:01:44;;;;;;;6.32;5.85;;;24.60;99.90;;;;;;5087623;28;20680;-77
2021/09/09 11:04:29;;;;;;;12.93;6.38;;;24.60;99.80;;;;;;5088076;28;20231;-77
2021/09/09 11:06:57;;;;;;;6.85;6.03;;;24.70;99.70;;;;;;5087712;28;20211;-77
2021/09/09 11:09:25;;;;;;;7.47;6.30;;;24.80;98.80;;;;;;5088021;28;20573;-77
2021/09/09 11:12:01;;;;;;;8.38;6.18;;;24.90;98.50;;;;;;5087459;28;20299;-77
2021/09/09 11:14:29;;;;;;;6.20;5.70;;;25.00;98.80;;;;;;5087667;28;20284;-77
2021/09/09 11:16:56;;;;;;;8.57;6.00;;;25.10;98.60;;;;;;5087514;28;20922;-78
2021/09/09 11:19:24;;;;;;;8.05;6.13;;;25.10;98.30;;;;;;5087593;28;20211;-77
2021/09/09 11:21:51;;;;;;;10.00;6.10;;;25.20;98.10;;;;;;5087627;28;20218;-76
2021/09/09 11:24:19;;;;;;;7.22;6.05;;;25.30;97.90;;;;;;5087557;28;20207;-76
2021/09/09 11:26:48;;;;;;;8.77;6.97;;;25.40;98.00;;;;;;5087558;28;20213;-76
2021/09/09 11:29:20;;;;;;;7.18;6.47;;;25.50;98.00;;;;;;5073013;28;20238;-77
2021/09/09 11:31:48;;;;;;;7.50;6.50;;;25.50;98.20;;;;;;5063378;28;20223;-78
2021/09/09 11:34:21;;;;;;;7.47;6.28;;;25.60;97.90;;;;;;5063606;28;20241;-77
2021/09/09 11:36:48;;;;;;;5.90;5.50;;;25.70;97.30;;;;;;5063426;28;20231;-77
2021/09/09 11:39:18;;;;;;;7.05;6.45;;;25.80;97.20;;;;;;5063142;28;20536;-76
2021/09/09 11:41:44;;;;;;;9.43;6.50;;;25.90;97.30;;;;;;5063148;28;20552;-77
2021/09/09 11:44:23;;;;;;;9.75;6.35;;;26.00;97.10;;;;;;5084402;28;20260;-76
2021/09/09 11:46:51;;;;;;;7.00;6.40;;;26.10;97.60;;;;;;5087032;28;20191;-76
2021/09/09 11:49:19;;;;;;;9.10;6.63;;;26.20;97.60;;;;;;5087082;28;21054;-76
2021/09/09 11:51:47;;;;;;;7.43;6.63;;;26.30;97.70;;;;;;5086941;28;20236;-77
2021/09/09 11:54:18;;;;;;;6.85;6.05;;;26.40;96.60;;;;;;5087151;28;20270;-76
2021/09/09 11:56:45;;;;;;;7.70;6.80;;;26.40;96.90;;;;;;5086658;28;20239;-76
2021/09/09 11:59:17;;;;;;;7.10;6.50;;;26.50;96.60;;;;;;5087086;28;20622;-76
2021/09/09 12:01:44;;;;;;;9.82;6.60;;;26.60;97.00;;;;;;5086810;28;20198;-76
2021/09/09 12:04:14;;;;;;;7.60;6.60;;;26.70;96.70;;;;;;5086254;28;20237;-76
2021/09/09 12:06:41;;;;;;;7.22;6.63;;;26.70;96.30;;;;;;5086639;28;20230;-76
2021/09/09 12:09:09;;;;;;;10.77;6.30;;;26.70;96.50;;;;;;5086773;28;20251;-77
2021/09/09 12:11:35;;;;;;;8.75;6.32;;;26.90;97.50;;;;;;5085810;28;20271;-76
2021/09/09 12:14:15;;;;;;;7.15;6.63;;;27.00;97.40;;;;;;5086347;28;20266;-76
2021/09/09 12:16:42;;;;;;;9.25;6.78;;;27.10;96.50;;;;;;5086598;28;20198;-76
2021/09/09 12:19:10;;;;;;;7.20;6.47;;;27.20;96.60;;;;;;5086418;28;20827;-77
2021/09/09 12:21:51;;;;;;;10.75;6.55;;;27.30;97.00;;;;;;5086946;28;20263;-76
2021/09/09 12:24:20;;;;;;;9.38;6.78;;;27.40;96.50;;;;;;5086649;28;20278;-76
2021/09/09 12:26:58;;;;;;;6.80;6.30;;;27.50;96.20;;;;;;5086353;28;20260;-77
2021/09/09 12:29:25;;;;;;;12.32;7.55;;;27.50;96.00;;;;;;5086563;28;20205;-76
2021/09/09 12:31:52;;;;;;;7.72;6.95;;;27.70;96.50;;;;;;5086455;28;20279;-77
2021/09/09 12:34:20;;;;;;;9.07;7.15;;;27.80;96.10;;;;;;5086327;28;20230;-76
2021/09/09 12:36:51;;;;;;;6.82;6.25;;;27.80;96.00;;;;;;5086170;28;20246;-76
2021/09/09 12:39:19;;;;;;;7.20;6.55;;;28.00;95.80;;;;;;5086316;28;20191;-76
2021/09/09 12:41:46;;;;;;;7.50;6.38;;;28.00;95.40;;;;;;5086206;28;20214;-77
2021/09/09 12:44:16;;;;;;;7.18;6.57;;;28.10;94.80;;;;;;5086234;28;20206;-77